createdAt,value
2019-04-28T00:02:27.319Z,2.40
2019-04-28T00:07:29.618Z,2.40
2019-04-28T00:12:34.118Z,3.03
2019-04-28T00:17:37.373Z,3.10
2019-04-28T00:22:51.545Z,2.90
2019-04-28T00:27:53.475Z,3.23
2019-04-28T00:32:56.834Z,3.20
2019-04-28T00:37:59.166Z,4.00
2019-04-28T00:43:01.128Z,3.50
2019-04-28T00:48:03.399Z,3.47
2019-04-28T00:53:07.424Z,2.57
2019-04-28T00:58:10.905Z,3.10
2019-04-28T01:03:14.477Z,2.43
2019-04-28T01:08:18.429Z,3.40
2019-04-28T01:13:21.470Z,3.37
2019-04-28T01:18:32.995Z,2.83
2019-04-28T01:23:34.971Z,2.60
2019-04-28T01:28:36.895Z,2.33
2019-04-28T01:34:01.686Z,2.60
2019-04-28T01:39:09.942Z,2.57
2019-04-28T01:44:11.954Z,3.00
2019-04-28T01:49:14.147Z,3.00
2019-04-28T01:54:16.006Z,3.13
2019-04-28T01:59:20.034Z,3.30
2019-04-28T02:04:23.837Z,3.27
2019-04-28T02:09:26.055Z,2.80
2019-04-28T02:14:28.058Z,2.40
2019-04-28T02:19:30.570Z,2.87
2019-04-28T02:24:34.791Z,3.10
2019-04-28T02:29:36.805Z,3.50
2019-04-28T02:34:41.311Z,2.87
2019-04-28T02:39:46.556Z,3.37
2019-04-28T02:44:50.449Z,3.50
2019-04-28T02:50:02.508Z,3.87
2019-04-28T02:55:05.075Z,4.17
2019-04-28T03:00:07.084Z,4.40
2019-04-28T03:05:11.534Z,5.10
2019-04-28T03:10:13.026Z,3.90
2019-04-28T03:15:16.420Z,4.00
2019-04-28T03:20:20.978Z,4.37
2019-04-28T03:25:50.810Z,4.00
2019-04-28T03:31:47.069Z,4.83
2019-04-28T03:36:23.559Z,4.50
2019-04-28T03:41:25.585Z,5.20
2019-04-28T03:46:30.440Z,4.63
2019-04-28T03:51:33.974Z,5.30
2019-04-28T03:56:36.104Z,5.50
2019-04-28T04:01:52.995Z,6.53
2019-04-28T04:06:41.978Z,6.40
2019-04-28T04:12:03.788Z,6.60
2019-04-28T04:17:13.115Z,6.63
2019-04-28T04:22:15.022Z,7.30
2019-04-28T04:27:16.980Z,6.57
2019-04-28T04:32:24.306Z,6.60
2019-04-28T04:37:22.666Z,6.17
2019-04-28T04:42:24.460Z,7.23
2019-04-28T04:47:26.624Z,8.80
2019-04-28T04:52:30.471Z,9.13
2019-04-28T04:57:32.649Z,8.73
2019-04-28T05:02:52.916Z,9.23
2019-04-28T05:07:53.306Z,9.17
2019-04-28T05:12:55.112Z,8.50
2019-04-28T05:17:57.176Z,8.67
2019-04-28T05:23:15.753Z,7.27
2019-04-28T05:28:19.654Z,7.50
2019-04-28T05:33:30.404Z,8.10
2019-04-28T05:38:33.475Z,8.43
2019-04-28T05:43:35.428Z,9.27
2019-04-28T05:48:51.311Z,9.70
2019-04-28T05:54:03.843Z,11.63
2019-04-28T05:59:10.498Z,11.80
2019-04-28T06:04:12.404Z,11.23
2019-04-28T06:09:46.021Z,14.17
2019-04-28T06:14:50.196Z,12.80
2019-04-28T06:19:54.938Z,13.17
2019-04-28T06:24:56.835Z,13.80
2019-04-28T06:29:58.755Z,11.83
2019-04-28T06:35:01.757Z,11.60
2019-04-28T06:40:03.666Z,11.30
2019-04-28T06:45:05.881Z,9.77
2019-04-28T06:50:08.378Z,9.43
2019-04-28T06:55:10.497Z,8.80
2019-04-28T07:00:13.182Z,7.73
2019-04-28T07:05:15.148Z,7.73
2019-04-28T07:10:16.984Z,7.20
2019-04-28T07:15:18.892Z,6.47
2019-04-28T07:20:46.085Z,7.10
2019-04-28T07:25:48.028Z,6.50
2019-04-28T07:30:50.022Z,6.27
2019-04-28T07:35:51.823Z,6.47
2019-04-28T07:40:55.847Z,6.20
2019-04-28T07:46:02.041Z,5.63
2019-04-28T07:51:09.995Z,5.47
2019-04-28T07:56:12.865Z,5.83
2019-04-28T08:01:14.675Z,3.47
2019-04-28T08:06:16.958Z,3.80
2019-04-28T08:11:18.843Z,3.10
2019-04-28T08:16:23.219Z,3.50
2019-04-28T08:21:25.114Z,3.17
2019-04-28T08:26:27.195Z,3.30
2019-04-28T08:31:38.995Z,3.57
2019-04-28T08:36:40.944Z,3.67
2019-04-28T08:41:42.834Z,3.93
2019-04-28T08:46:46.880Z,4.30
2019-04-28T08:51:48.812Z,4.57
2019-04-28T08:56:50.847Z,4.20
2019-04-28T09:01:52.736Z,4.67
2019-04-28T09:06:57.810Z,4.63
2019-04-28T09:12:01.843Z,4.37
2019-04-28T09:17:03.960Z,4.40
2019-04-28T09:22:05.742Z,4.63
2019-04-28T09:27:07.822Z,5.37
2019-04-28T09:32:09.762Z,4.70
2019-04-28T09:37:11.667Z,5.37
2019-04-28T09:42:31.867Z,5.87
2019-04-28T09:47:34.085Z,4.80
2019-04-28T09:52:35.869Z,5.67
2019-04-28T09:57:37.978Z,4.97
2019-04-28T10:02:39.918Z,5.20
2019-04-28T10:07:41.849Z,5.40
2019-04-28T10:12:43.795Z,5.30
2019-04-28T10:17:45.921Z,6.17
2019-04-28T10:22:47.767Z,9.00
2019-04-28T10:27:49.865Z,12.23
2019-04-28T10:32:54.480Z,11.87
2019-04-28T10:37:57.746Z,11.83
2019-04-28T10:42:59.682Z,10.60
2019-04-28T10:48:01.724Z,10.53
2019-04-28T10:53:03.657Z,10.60
2019-04-28T10:58:05.775Z,10.40
2019-04-28T11:03:10.876Z,9.90
2019-04-28T11:08:41.545Z,9.33
2019-04-28T11:13:45.525Z,9.80
2019-04-28T11:18:47.742Z,12.60
2019-04-28T11:23:52.568Z,13.73
2019-04-28T11:28:54.777Z,14.10
2019-04-28T11:34:10.589Z,15.17
2019-04-28T11:39:16.562Z,14.70
2019-04-28T11:44:20.335Z,14.00
2019-04-28T11:49:22.320Z,13.73
2019-04-28T11:54:24.292Z,13.90
2019-04-28T11:59:26.381Z,12.53
2019-04-28T12:04:28.400Z,12.83
2019-04-28T12:09:38.214Z,11.80
2019-04-28T12:14:53.292Z,11.20
2019-04-28T12:20:01.485Z,11.17
2019-04-28T12:25:09.274Z,11.30
2019-04-28T12:30:14.006Z,11.60
2019-04-28T12:35:18.489Z,10.57
2019-04-28T12:40:22.596Z,10.70
2019-04-28T12:45:34.504Z,10.40
2019-04-28T12:50:33.642Z,9.50
2019-04-28T12:55:35.718Z,9.13
2019-04-28T13:00:59.760Z,9.27
2019-04-28T13:06:05.813Z,9.13
2019-04-28T13:11:09.387Z,8.57
2019-04-28T13:16:12.746Z,9.70
2019-04-28T13:21:14.567Z,10.23
2019-04-28T13:26:16.823Z,9.47
2019-04-28T13:31:20.420Z,9.70
2019-04-28T13:36:29.957Z,9.70
2019-04-28T13:41:31.863Z,9.93
2019-04-28T13:46:34.236Z,9.87
2019-04-28T13:51:36.253Z,9.77
2019-04-28T13:56:38.239Z,9.43
2019-04-28T14:01:58.181Z,10.00
2019-04-28T14:07:02.226Z,9.80
2019-04-28T14:12:04.188Z,9.50
2019-04-28T14:17:05.989Z,9.70
2019-04-28T14:22:07.888Z,9.57
2019-04-28T14:27:09.774Z,9.13
2019-04-28T14:32:11.610Z,9.83
2019-04-28T14:37:15.910Z,10.10
2019-04-28T14:42:18.804Z,8.90
2019-04-28T14:47:20.738Z,9.87
2019-04-28T14:52:22.645Z,8.90
2019-04-28T14:57:24.693Z,9.67
2019-04-28T15:02:46.240Z,9.33
2019-04-28T15:08:13.538Z,8.80
2019-04-28T15:13:16.665Z,8.37
2019-04-28T15:18:20.100Z,10.23
2019-04-28T15:23:21.898Z,10.20
2019-04-28T15:28:23.948Z,10.40
2019-04-28T15:33:30.006Z,10.90
2019-04-28T15:38:33.493Z,10.33
2019-04-28T15:43:35.486Z,11.33
2019-04-28T15:48:39.450Z,12.00
2019-04-28T15:53:43.305Z,11.50
2019-04-28T15:58:48.302Z,12.57
2019-04-28T16:03:50.135Z,14.57
2019-04-28T16:08:52.253Z,12.87
2019-04-28T16:13:54.072Z,13.13
2019-04-28T16:18:56.318Z,12.23
2019-04-28T16:23:59.554Z,14.60
2019-04-28T16:29:04.718Z,13.50
2019-04-28T16:34:06.637Z,14.70
2019-04-28T16:39:09.855Z,13.60
2019-04-28T16:44:16.023Z,13.50
2019-04-28T16:49:18.053Z,14.00
2019-04-28T16:54:20.969Z,15.60
2019-04-28T16:59:48.162Z,12.43
2019-04-28T17:04:50.043Z,13.53
2019-04-28T17:09:54.609Z,13.37
2019-04-28T17:14:56.407Z,13.87
2019-04-28T17:19:58.463Z,12.60
2019-04-28T17:25:00.365Z,10.57
2019-04-28T17:30:04.021Z,6.40
2019-04-28T17:35:06.233Z,7.63
2019-04-28T17:40:08.785Z,6.80
2019-04-28T17:45:15.151Z,7.30
2019-04-28T17:50:19.248Z,7.40
2019-04-28T17:55:21.129Z,7.70
2019-04-28T18:00:48.262Z,7.87
2019-04-28T18:05:56.184Z,7.97
2019-04-28T18:11:00.677Z,9.00
2019-04-28T18:16:26.004Z,9.20
2019-04-28T18:21:28.004Z,8.70
2019-04-28T18:26:33.056Z,8.90
2019-04-28T18:32:09.762Z,8.53
2019-04-28T18:37:42.949Z,10.23
2019-04-28T18:43:00.345Z,8.17
2019-04-28T18:48:02.378Z,8.57
2019-04-28T18:53:06.378Z,7.87
2019-04-28T18:58:09.847Z,7.73
2019-04-28T19:03:12.494Z,7.97
2019-04-28T19:08:20.707Z,8.17
2019-04-28T19:13:25.438Z,9.10
2019-04-28T19:18:32.783Z,9.03
2019-04-28T19:23:34.799Z,8.10
2019-04-28T19:28:36.848Z,9.10
2019-04-28T19:33:38.775Z,10.37
2019-04-28T19:38:41.482Z,10.93
2019-04-28T19:43:47.679Z,11.33
2019-04-28T19:48:49.893Z,12.23
2019-04-28T19:53:51.792Z,12.63
2019-04-28T19:59:16.453Z,11.93
2019-04-28T20:04:18.407Z,12.33
2019-04-28T20:09:20.482Z,12.30
2019-04-28T20:14:22.455Z,12.87
2019-04-28T20:19:25.622Z,12.07
2019-04-28T20:24:27.603Z,12.77
2019-04-28T20:29:29.620Z,11.70
2019-04-28T20:34:31.705Z,12.47
2019-04-28T20:39:33.873Z,11.80
2019-04-28T20:44:35.790Z,11.70
2019-04-28T20:49:37.856Z,11.30
2019-04-28T20:54:39.782Z,10.83
2019-04-28T20:59:46.199Z,12.07
2019-04-28T21:04:48.135Z,11.33
2019-04-28T21:09:50.376Z,11.93
2019-04-28T21:14:54.861Z,10.97
2019-04-28T21:19:59.968Z,10.17
2019-04-28T21:25:04.382Z,10.77
2019-04-28T21:30:09.469Z,10.93
2019-04-28T21:35:14.103Z,11.40
2019-04-28T21:40:16.940Z,11.67
2019-04-28T21:45:37.174Z,11.07
2019-04-28T21:50:38.991Z,13.47
2019-04-28T21:55:41.114Z,11.53
2019-04-28T22:00:51.159Z,13.50
2019-04-28T22:05:53.311Z,12.90
2019-04-28T22:10:55.289Z,13.30
2019-04-28T22:15:57.258Z,13.07
2019-04-28T22:20:59.154Z,13.40
2019-04-28T22:26:01.223Z,13.80
2019-04-28T22:31:03.137Z,14.27
2019-04-28T22:36:05.106Z,13.27
2019-04-28T22:41:06.983Z,13.40
2019-04-28T22:46:09.206Z,13.87
2019-04-28T22:51:11.061Z,13.93
2019-04-28T22:56:35.153Z,15.03
2019-04-28T23:01:42.854Z,14.73
2019-04-28T23:06:45.039Z,15.03
2019-04-28T23:11:49.973Z,15.77
2019-04-28T23:16:52.251Z,14.07
2019-04-28T23:22:12.603Z,15.37
2019-04-28T23:27:14.800Z,16.00
2019-04-28T23:32:16.738Z,14.90
2019-04-28T23:37:18.685Z,14.97
2019-04-28T23:42:40.245Z,15.33
2019-04-28T23:47:42.359Z,15.73
2019-04-28T23:53:01.788Z,15.47
2019-04-28T23:58:04.286Z,15.87
